Time;durP1;ratioP1;P1;durP2;ratioP2;P2;SDS_P1;SDS_P2;PMS_P1;PMS_P2;Temp;Humidity;BMP_temperature;BMP_pressure;BME280_temperature;BME280_humidity;BME280_pressure;Samples;Min_cycle;Max_cycle;Signal;HPM_P1;HPM_P2
2022/03/18 00:00:21;;;;;;;7.47;4.43;;;;;;;;;;5067341;28;20188;-75
2022/03/18 00:02:50;;;;;;;11.00;4.47;;;;;;;;;;5065447;28;20289;-75
2022/03/18 00:05:17;;;;;;;10.50;4.17;;;;;;;;;;5064733;28;20597;-75
2022/03/18 00:07:46;;;;;;;8.47;4.10;;;;;;;;;;5059365;28;20188;-75
2022/03/18 00:10:14;;;;;;;8.20;4.10;;;;;;;;;;5063971;28;20211;-75
2022/03/18 00:12:40;;;;;;;6.80;4.00;;;;;;;;;;5064310;28;20212;-75
2022/03/18 00:15:11;;;;;;;8.13;4.33;;;;;;;;;;5062204;28;20243;-75
2022/03/18 00:17:37;;;;;;;7.33;3.93;;;;;;;;;;5058921;28;20227;-76
2022/03/18 00:20:07;;;;;;;7.67;4.20;;;;;;;;;;5071504;28;20189;-75
2022/03/18 00:22:33;;;;;;;8.63;4.53;;;;;;;;;;5066132;28;20205;-75
2022/03/18 00:24:59;;;;;;;8.60;4.10;;;;;;;;;;5067484;28;20656;-75
2022/03/18 00:27:26;;;;;;;6.60;3.73;;;;;;;;;;5065597;28;20220;-75
2022/03/18 00:29:54;;;;;;;8.90;4.33;;;;;;;;;;5077850;28;20551;-75
2022/03/18 00:32:21;;;;;;;8.53;4.20;;;;;;;;;;5065229;28;20746;-75
2022/03/18 00:34:47;;;;;;;8.47;4.43;;;;;;;;;;5057145;28;20287;-75
2022/03/18 00:37:13;;;;;;;8.33;3.90;;;;;;;;;;5065687;28;20185;-75
2022/03/18 00:39:39;;;;;;;9.83;4.27;;;;;;;;;;5063307;28;20185;-75
2022/03/18 00:42:06;;;;;;;10.63;4.43;;;;;;;;;;5059541;28;20753;-75
2022/03/18 00:44:32;;;;;;;7.43;4.07;;;;;;;;;;5065516;28;20657;-75
2022/03/18 00:46:59;;;;;;;6.97;4.37;;;;;;;;;;5064630;28;20221;-75
2022/03/18 00:52:14;;;;;;;6.37;4.20;;;;;;;;;;5062311;28;20628;-75
2022/03/18 00:54:42;;;;;;;7.53;3.83;;;;;;;;;;5066581;28;20177;-75
2022/03/18 00:57:10;;;;;;;8.40;4.10;;;;;;;;;;5066913;28;20214;-75
2022/03/18 00:59:37;;;;;;;6.37;3.97;;;;;;;;;;5066444;28;20567;-75
2022/03/18 01:02:04;;;;;;;8.07;4.33;;;;;;;;;;5066454;28;20719;-75
2022/03/18 01:04:30;;;;;;;9.63;3.93;;;;;;;;;;5060858;28;20200;-75
2022/03/18 01:06:57;;;;;;;7.60;3.93;;;;;;;;;;5064874;28;20205;-75
2022/03/18 01:09:25;;;;;;;6.67;3.77;;;;;;;;;;5059118;28;20181;-75
2022/03/18 01:11:52;;;;;;;7.33;3.80;;;;;;;;;;5058672;28;20212;-75
2022/03/18 01:14:19;;;;;;;5.77;3.57;;;;;;;;;;5063980;28;20268;-75
2022/03/18 01:16:45;;;;;;;7.73;3.60;;;;;;;;;;5063349;28;20869;-75
2022/03/18 01:19:11;;;;;;;7.73;3.30;;;;;;;;;;5056335;28;20188;-75
2022/03/18 01:21:38;;;;;;;6.80;3.70;;;;;;;;;;5056925;28;20209;-75
2022/03/18 01:24:04;;;;;;;7.10;3.50;;;;;;;;;;5065653;28;20192;-75
2022/03/18 01:26:30;;;;;;;7.50;4.03;;;;;;;;;;5067857;28;20209;-75
2022/03/18 01:28:57;;;;;;;7.87;3.63;;;;;;;;;;5068768;28;20220;-75
2022/03/18 01:31:23;;;;;;;6.47;3.53;;;;;;;;;;5068129;28;20209;-75
2022/03/18 01:33:49;;;;;;;8.40;3.73;;;;;;;;;;5068345;28;20192;-75
2022/03/18 01:36:15;;;;;;;10.07;3.97;;;;;;;;;;5069959;28;20498;-75
2022/03/18 01:38:42;;;;;;;8.50;4.10;;;;;;;;;;5069280;28;20193;-75
2022/03/18 01:41:08;;;;;;;6.80;3.87;;;;;;;;;;5070476;28;20216;-75
2022/03/18 01:43:44;;;;;;;9.87;3.67;;;;;;;;;;5065708;28;20177;-75
2022/03/18 01:46:11;;;;;;;7.33;3.90;;;;;;;;;;5069135;28;20212;-75
2022/03/18 01:48:38;;;;;;;7.40;3.33;;;;;;;;;;5068959;28;20185;-75
2022/03/18 01:51:05;;;;;;;7.30;3.27;;;;;;;;;;5069951;28;20209;-75
2022/03/18 01:53:31;;;;;;;8.53;3.40;;;;;;;;;;5070571;28;20189;-75
2022/03/18 01:55:57;;;;;;;8.73;3.57;;;;;;;;;;5070731;28;20185;-75
2022/03/18 01:58:23;;;;;;;6.77;3.30;;;;;;;;;;5070311;28;20786;-75
2022/03/18 02:00:50;;;;;;;10.23;3.50;;;;;;;;;;5070938;28;20300;-75
2022/03/18 02:03:17;;;;;;;8.70;3.53;;;;;;;;;;5065723;28;20191;-75
2022/03/18 02:05:43;;;;;;;9.40;3.90;;;;;;;;;;5061996;28;20684;-75
2022/03/18 02:08:10;;;;;;;9.40;3.70;;;;;;;;;;5063307;28;20219;-75
2022/03/18 02:10:36;;;;;;;6.20;3.57;;;;;;;;;;5068125;28;20207;-75
2022/03/18 02:13:03;;;;;;;8.00;3.50;;;;;;;;;;5065152;28;20254;-75
2022/03/18 02:15:29;;;;;;;6.83;3.50;;;;;;;;;;5066652;28;20591;-75
2022/03/18 02:17:55;;;;;;;7.20;3.13;;;;;;;;;;5069238;28;20178;-75
2022/03/18 02:20:21;;;;;;;7.03;3.53;;;;;;;;;;5068855;28;20671;-75
2022/03/18 02:22:47;;;;;;;11.93;3.70;;;;;;;;;;5064252;28;20201;-75
2022/03/18 02:25:14;;;;;;;13.97;4.00;;;;;;;;;;5065948;28;20174;-75
2022/03/18 02:27:41;;;;;;;8.77;3.80;;;;;;;;;;5064632;28;20248;-75
2022/03/18 02:30:08;;;;;;;7.27;3.70;;;;;;;;;;5067881;28;20211;-75
2022/03/18 02:32:34;;;;;;;8.17;4.00;;;;;;;;;;5066985;28;20212;-75
2022/03/18 02:35:01;;;;;;;8.57;3.70;;;;;;;;;;5084279;28;20181;-75
2022/03/18 02:37:27;;;;;;;10.77;4.20;;;;;;;;;;5062755;28;20260;-75
2022/03/18 02:39:54;;;;;;;8.20;3.90;;;;;;;;;;5067467;28;20215;-75
2022/03/18 02:42:20;;;;;;;10.10;4.20;;;;;;;;;;5062465;28;20262;-75
2022/03/18 02:44:46;;;;;;;7.13;3.37;;;;;;;;;;5067233;28;20240;-75
2022/03/18 02:47:12;;;;;;;8.67;3.47;;;;;;;;;;5064640;28;20213;-75
2022/03/18 02:49:39;;;;;;;10.87;3.80;;;;;;;;;;5062824;28;20315;-75
2022/03/18 02:52:05;;;;;;;8.37;3.73;;;;;;;;;;5069130;28;21003;-75
2022/03/18 02:54:33;;;;;;;10.23;4.03;;;;;;;;;;5068598;28;20169;-75
2022/03/18 02:56:59;;;;;;;6.50;3.80;;;;;;;;;;5063377;28;20197;-76
2022/03/18 02:59:26;;;;;;;9.17;3.80;;;;;;;;;;5064648;28;20686;-76
2022/03/18 03:01:52;;;;;;;8.53;4.10;;;;;;;;;;5064580;28;20266;-76
2022/03/18 03:04:18;;;;;;;8.67;4.00;;;;;;;;;;5063543;28;20688;-76
2022/03/18 03:09:30;;;;;;;8.17;4.00;;;;;;;;;;5066588;28;20188;-74
2022/03/18 03:11:59;;;;;;;8.20;3.83;;;;;;;;;;5068237;28;20201;-74
2022/03/18 03:14:25;;;;;;;10.27;4.07;;;;;;;;;;5068259;28;20185;-74
2022/03/18 03:16:51;;;;;;;6.80;3.83;;;;;;;;;;5068138;28;20267;-74
2022/03/18 03:19:17;;;;;;;9.33;4.30;;;;;;;;;;5063732;28;20238;-74
2022/03/18 03:21:43;;;;;;;9.80;3.93;;;;;;;;;;5067041;28;20254;-74
2022/03/18 03:24:10;;;;;;;10.07;4.30;;;;;;;;;;5067635;28;20184;-74
2022/03/18 03:26:36;;;;;;;8.67;3.80;;;;;;;;;;5066910;28;21009;-74
2022/03/18 03:29:02;;;;;;;7.40;3.67;;;;;;;;;;5064618;28;20192;-74
2022/03/18 03:31:28;;;;;;;10.03;4.47;;;;;;;;;;5066129;28;20251;-74
2022/03/18 03:33:54;;;;;;;7.90;3.77;;;;;;;;;;5067658;28;20656;-74
2022/03/18 03:36:20;;;;;;;7.00;3.70;;;;;;;;;;5066459;28;20295;-75
2022/03/18 03:38:46;;;;;;;5.93;3.70;;;;;;;;;;5063559;28;20193;-74
2022/03/18 03:41:12;;;;;;;8.67;3.77;;;;;;;;;;5067020;28;20292;-74
2022/03/18 03:43:39;;;;;;;9.43;3.50;;;;;;;;;;5064846;28;20185;-75
2022/03/18 03:46:05;;;;;;;8.67;3.70;;;;;;;;;;5059240;28;20382;-75
2022/03/18 03:48:31;;;;;;;7.67;3.90;;;;;;;;;;5068341;28;20629;-75
2022/03/18 03:50:57;;;;;;;6.73;3.73;;;;;;;;;;5064991;28;20213;-75
2022/03/18 03:53:23;;;;;;;8.27;3.60;;;;;;;;;;5064406;28;20196;-74
2022/03/18 03:55:49;;;;;;;10.23;4.40;;;;;;;;;;5066204;28;20668;-74
2022/03/18 03:58:15;;;;;;;7.17;4.50;;;;;;;;;;5059710;28;20193;-75
2022/03/18 04:00:41;;;;;;;7.50;4.03;;;;;;;;;;5067700;28;20192;-75
2022/03/18 04:03:08;;;;;;;8.60;4.17;;;;;;;;;;5063980;28;20612;-75
2022/03/18 04:05:34;;;;;;;7.63;4.10;;;;;;;;;;5064562;28;20270;-75
2022/03/18 04:08:01;;;;;;;9.53;4.10;;;;;;;;;;5066700;28;20695;-75
2022/03/18 04:10:30;;;;;;;10.50;3.90;;;;;;;;;;5063583;28;20196;-74
2022/03/18 04:12:56;;;;;;;7.00;3.70;;;;;;;;;;5063502;28;20192;-75
2022/03/18 04:15:23;;;;;;;8.40;3.93;;;;;;;;;;5065171;28;20675;-75
2022/03/18 04:17:49;;;;;;;7.03;3.87;;;;;;;;;;5066940;28;20183;-75
2022/03/18 04:20:17;;;;;;;8.27;3.77;;;;;;;;;;5067614;28;20188;-74
2022/03/18 04:22:44;;;;;;;6.40;3.97;;;;;;;;;;5064951;28;20200;-75
2022/03/18 04:25:10;;;;;;;6.63;3.67;;;;;;;;;;5063853;28;20189;-75
2022/03/18 04:27:37;;;;;;;8.77;3.90;;;;;;;;;;5066836;28;20244;-75
2022/03/18 04:30:07;;;;;;;9.63;4.00;;;;;;;;;;5062152;28;20181;-75
2022/03/18 04:32:33;;;;;;;7.23;3.87;;;;;;;;;;5064620;28;20227;-75
2022/03/18 04:35:00;;;;;;;9.30;4.30;;;;;;;;;;5065140;28;20183;-75
2022/03/18 04:37:26;;;;;;;8.27;4.20;;;;;;;;;;5066799;28;21032;-75
2022/03/18 04:39:53;;;;;;;9.63;4.30;;;;;;;;;;5065170;28;20607;-74
2022/03/18 04:42:19;;;;;;;6.47;3.67;;;;;;;;;;5065291;28;20303;-75
2022/03/18 04:44:46;;;;;;;10.67;4.00;;;;;;;;;;5065843;28;20186;-75
2022/03/18 04:47:12;;;;;;;7.47;3.90;;;;;;;;;;5066454;28;20208;-74
2022/03/18 04:49:38;;;;;;;8.90;4.30;;;;;;;;;;5067049;28;20195;-74
2022/03/18 04:52:05;;;;;;;9.43;4.50;;;;;;;;;;5064924;28;20295;-75
2022/03/18 04:54:31;;;;;;;8.73;4.30;;;;;;;;;;5065070;28;20200;-75
2022/03/18 04:57:15;;;;;;;11.00;4.20;;;;;;;;;;5060843;28;20191;-75
2022/03/18 04:59:42;;;;;;;9.53;4.10;;;;;;;;;;5065178;28;20199;-75
2022/03/18 05:02:10;;;;;;;9.07;4.30;;;;;;;;;;5061308;28;20205;-75
2022/03/18 05:04:37;;;;;;;30.00;4.47;;;;;;;;;;5064623;28;20188;-75
2022/03/18 05:07:04;;;;;;;9.87;4.60;;;;;;;;;;5062255;28;20208;-74
2022/03/18 05:09:30;;;;;;;9.67;4.53;;;;;;;;;;5065065;28;20253;-75
2022/03/18 05:11:56;;;;;;;10.33;4.57;;;;;;;;;;5061269;28;20212;-75
2022/03/18 05:14:22;;;;;;;7.90;4.13;;;;;;;;;;5067164;28;20196;-75
2022/03/18 05:16:49;;;;;;;10.97;4.80;;;;;;;;;;5063890;28;20185;-75
2022/03/18 05:19:15;;;;;;;10.83;4.40;;;;;;;;;;5066256;28;20192;-75
2022/03/18 05:21:41;;;;;;;10.10;3.77;;;;;;;;;;5061621;28;20209;-75
2022/03/18 05:24:09;;;;;;;11.70;4.43;;;;;;;;;;5066306;28;20189;-75
2022/03/18 05:26:37;;;;;;;12.67;4.60;;;;;;;;;;5060035;28;20266;-75
2022/03/18 05:29:04;;;;;;;8.07;4.30;;;;;;;;;;5064258;28;20205;-75
2022/03/18 05:31:32;;;;;;;12.33;4.40;;;;;;;;;;5062753;28;20286;-75
2022/03/18 05:33:58;;;;;;;9.60;4.53;;;;;;;;;;5063781;28;20185;-75
2022/03/18 05:36:25;;;;;;;9.57;4.67;;;;;;;;;;5061043;28;20196;-75
2022/03/18 05:38:51;;;;;;;11.47;4.63;;;;;;;;;;5065378;28;20350;-75
2022/03/18 05:41:17;;;;;;;13.07;4.83;;;;;;;;;;5062272;28;20205;-75
2022/03/18 05:43:43;;;;;;;9.87;4.57;;;;;;;;;;5064199;28;20216;-75
2022/03/18 05:46:11;;;;;;;13.17;4.83;;;;;;;;;;5058925;28;20213;-74
2022/03/18 05:48:37;;;;;;;10.77;4.70;;;;;;;;;;5065646;28;20181;-74
2022/03/18 05:51:03;;;;;;;10.90;4.80;;;;;;;;;;5061410;28;20205;-75
2022/03/18 05:53:30;;;;;;;11.00;4.63;;;;;;;;;;5060668;28;21016;-75
2022/03/18 05:58:42;;;;;;;7.97;4.53;;;;;;;;;;5065992;28;20185;-76
2022/03/18 06:01:10;;;;;;;10.00;4.63;;;;;;;;;;5063337;28;20217;-76
2022/03/18 06:03:37;;;;;;;9.73;4.63;;;;;;;;;;5068629;28;20276;-80
2022/03/18 06:06:04;;;;;;;13.87;5.20;;;;;;;;;;5060550;28;20247;-80
2022/03/18 06:14:01;;;;;;;9.50;4.10;;;;;;;;;;5068292;28;20189;-81
2022/03/18 06:16:27;;;;;;;9.27;4.70;;;;;;;;;;5054490;28;20193;-80
2022/03/18 06:18:54;;;;;;;11.27;4.90;;;;;;;;;;5072090;28;20189;-80
2022/03/18 06:21:23;;;;;;;11.80;4.93;;;;;;;;;;5071521;28;21146;-78
2022/03/18 06:23:50;;;;;;;11.47;5.50;;;;;;;;;;5064625;28;20276;-76
2022/03/18 06:26:18;;;;;;;11.40;5.83;;;;;;;;;;5065880;28;20236;-76
2022/03/18 06:28:44;;;;;;;12.13;6.53;;;;;;;;;;5069736;28;20212;-76
2022/03/18 06:31:11;;;;;;;12.53;6.10;;;;;;;;;;5068167;28;20317;-76
2022/03/18 06:33:43;;;;;;;11.87;5.97;;;;;;;;;;5070210;28;20200;-76
2022/03/18 06:36:10;;;;;;;11.97;5.63;;;;;;;;;;5068032;28;20290;-76
2022/03/18 06:38:36;;;;;;;11.00;5.27;;;;;;;;;;5068440;28;20193;-77
2022/03/18 06:41:02;;;;;;;11.50;5.03;;;;;;;;;;5063773;28;20209;-76
2022/03/18 06:43:28;;;;;;;9.57;5.03;;;;;;;;;;5068714;28;20181;-76
2022/03/18 06:45:55;;;;;;;10.60;5.20;;;;;;;;;;5062252;28;20201;-76
2022/03/18 06:48:21;;;;;;;9.70;5.00;;;;;;;;;;5063410;28;20186;-76
2022/03/18 06:50:48;;;;;;;11.37;5.87;;;;;;;;;;5066073;28;20211;-76
2022/03/18 06:53:14;;;;;;;11.53;5.07;;;;;;;;;;5068280;28;20196;-76
2022/03/18 06:55:40;;;;;;;13.60;5.20;;;;;;;;;;5069501;28;20185;-76
2022/03/18 06:58:06;;;;;;;15.67;5.03;;;;;;;;;;5067975;28;20660;-77
2022/03/18 07:00:33;;;;;;;10.83;4.77;;;;;;;;;;5059921;28;20220;-75
2022/03/18 07:02:59;;;;;;;10.10;4.90;;;;;;;;;;5058754;28;20181;-75
2022/03/18 07:05:27;;;;;;;11.27;4.90;;;;;;;;;;5063961;28;20181;-76
2022/03/18 07:07:53;;;;;;;12.57;5.70;;;;;;;;;;5067460;28;20205;-76
2022/03/18 07:10:19;;;;;;;12.60;5.70;;;;;;;;;;5065693;28;20242;-75
2022/03/18 07:12:46;;;;;;;13.53;5.17;;;;;;;;;;5064899;28;20227;-75
2022/03/18 07:15:13;;;;;;;13.13;5.33;;;;;;;;;;5058904;28;20185;-75
2022/03/18 07:20:24;;;;;;;13.60;5.67;;;;;;;;;;5067555;28;20182;-75
2022/03/18 07:23:04;;;;;;;10.87;5.50;;;;;;;;;;5059228;28;20209;-76
2022/03/18 07:25:31;;;;;;;10.37;5.70;;;;;;;;;;5079765;28;22209;-76
2022/03/18 07:27:57;;;;;;;12.37;5.93;;;;;;;;;;5067340;28;20302;-76
2022/03/18 07:30:23;;;;;;;13.20;6.03;;;;;;;;;;5063231;28;20177;-76
2022/03/18 07:32:50;;;;;;;11.17;5.13;;;;;;;;;;5063096;28;20212;-76
2022/03/18 07:35:16;;;;;;;10.90;5.43;;;;;;;;;;5031893;28;20189;-75
2022/03/18 07:37:42;;;;;;;13.73;5.63;;;;;;;;;;5067865;28;20191;-75
2022/03/18 07:40:11;;;;;;;14.27;5.60;;;;;;;;;;5061411;28;20857;-75
2022/03/18 07:42:44;;;;;;;11.30;5.40;;;;;;;;;;5048779;28;20304;-75
2022/03/18 07:45:11;;;;;;;12.87;5.30;;;;;;;;;;5068979;28;20185;-75
2022/03/18 07:47:38;;;;;;;10.47;5.50;;;;;;;;;;5065227;28;20205;-75
2022/03/18 07:50:05;;;;;;;10.83;5.87;;;;;;;;;;5067354;28;20185;-75
2022/03/18 07:52:31;;;;;;;10.23;5.50;;;;;;;;;;5064975;28;20211;-75
2022/03/18 07:54:58;;;;;;;12.00;5.23;;;;;;;;;;5066200;28;20185;-76
2022/03/18 07:57:24;;;;;;;9.30;4.60;;;;;;;;;;5071250;28;20482;-76
2022/03/18 07:59:50;;;;;;;8.57;5.17;;;;;;;;;;5070976;28;20220;-76
2022/03/18 08:02:16;;;;;;;10.30;4.90;;;;;;;;;;5068606;28;20521;-76
2022/03/18 08:04:42;;;;;;;9.70;5.23;;;;;;;;;;5063200;28;20242;-76
2022/03/18 08:07:10;;;;;;;10.30;5.17;;;;;;;;;;5066211;28;20212;-76
2022/03/18 08:09:36;;;;;;;9.60;4.70;;;;;;;;;;5034993;28;20177;-76
2022/03/18 08:12:03;;;;;;;9.73;4.90;;;;;;;;;;5066237;28;20205;-76
2022/03/18 08:14:29;;;;;;;10.33;5.00;;;;;;;;;;5068703;28;20277;-75
2022/03/18 08:16:55;;;;;;;7.97;4.77;;;;;;;;;;5051535;28;20596;-76
2022/03/18 08:19:21;;;;;;;9.00;4.37;;;;;;;;;;5067556;28;20582;-76
2022/03/18 08:21:48;;;;;;;8.57;4.50;;;;;;;;;;5067872;28;20209;-76
2022/03/18 08:24:14;;;;;;;8.50;4.40;;;;;;;;;;5068394;28;20201;-76
2022/03/18 08:26:40;;;;;;;8.70;4.40;;;;;;;;;;5059903;28;20221;-76
2022/03/18 08:29:07;;;;;;;9.40;4.63;;;;;;;;;;5067765;28;20196;-77
2022/03/18 08:31:34;;;;;;;8.97;4.27;;;;;;;;;;5068130;28;20291;-76
2022/03/18 08:34:00;;;;;;;7.80;4.23;;;;;;;;;;5073633;28;20228;-77
2022/03/18 08:36:26;;;;;;;10.67;4.40;;;;;;;;;;5065708;28;20276;-76
2022/03/18 08:38:52;;;;;;;10.73;4.70;;;;;;;;;;5068776;28;20188;-75
2022/03/18 08:41:19;;;;;;;8.93;4.33;;;;;;;;;;5066758;28;20219;-78
2022/03/18 08:43:45;;;;;;;8.47;4.80;;;;;;;;;;5064867;28;20200;-78
2022/03/18 08:46:11;;;;;;;10.73;4.57;;;;;;;;;;5066825;28;20208;-78
2022/03/18 08:48:38;;;;;;;11.00;4.90;;;;;;;;;;5068410;28;20189;-78
2022/03/18 08:51:04;;;;;;;11.63;4.87;;;;;;;;;;5066352;28;20204;-78
2022/03/18 08:53:30;;;;;;;11.53;4.90;;;;;;;;;;5065028;28;20200;-78
2022/03/18 08:55:56;;;;;;;12.23;5.60;;;;;;;;;;5078427;28;20192;-78
2022/03/18 08:58:24;;;;;;;10.50;4.83;;;;;;;;;;5050796;28;20181;-78
2022/03/18 09:00:51;;;;;;;11.10;5.30;;;;;;;;;;5049827;28;20315;-78
2022/03/18 09:03:17;;;;;;;11.40;5.17;;;;;;;;;;5066697;28;20739;-78
2022/03/18 09:05:44;;;;;;;12.73;4.60;;;;;;;;;;5066465;28;20188;-78
2022/03/18 09:08:10;;;;;;;11.17;5.30;;;;;;;;;;5067724;28;20189;-78
2022/03/18 09:10:36;;;;;;;10.53;5.47;;;;;;;;;;5066424;28;20181;-78
2022/03/18 09:13:03;;;;;;;9.37;4.90;;;;;;;;;;5063508;28;20529;-78
2022/03/18 09:15:30;;;;;;;11.20;5.27;;;;;;;;;;5066400;28;20597;-78
2022/03/18 09:17:56;;;;;;;9.57;5.17;;;;;;;;;;5066195;28;20258;-78
2022/03/18 09:20:23;;;;;;;9.00;4.90;;;;;;;;;;5066854;28;20177;-78
2022/03/18 09:22:49;;;;;;;9.23;5.53;;;;;;;;;;5065183;28;20232;-78
2022/03/18 09:25:16;;;;;;;12.60;5.67;;;;;;;;;;5052219;28;20177;-78
2022/03/18 09:27:42;;;;;;;12.30;5.90;;;;;;;;;;5042697;28;20215;-78
2022/03/18 09:30:12;;;;;;;11.50;5.50;;;;;;;;;;5063692;28;20212;-78
2022/03/18 09:32:40;;;;;;;8.97;5.03;;;;;;;;;;5063545;28;20208;-79
2022/03/18 09:35:07;;;;;;;12.60;5.40;;;;;;;;;;5065830;28;20584;-79
2022/03/18 09:37:34;;;;;;;11.33;6.03;;;;;;;;;;5068038;28;20718;-78
2022/03/18 09:40:03;;;;;;;13.20;5.43;;;;;;;;;;5064430;28;20203;-80
2022/03/18 09:42:29;;;;;;;11.40;5.70;;;;;;;;;;5070248;28;20213;-79
2022/03/18 09:44:56;;;;;;;11.43;5.60;;;;;;;;;;5069349;28;20232;-79
2022/03/18 09:47:22;;;;;;;10.43;5.67;;;;;;;;;;5073711;28;20205;-80
2022/03/18 09:49:48;;;;;;;11.63;6.07;;;;;;;;;;5075439;28;20182;-79
2022/03/18 09:52:15;;;;;;;14.87;6.13;;;;;;;;;;5084112;28;20921;-79
2022/03/18 09:54:41;;;;;;;13.57;5.97;;;;;;;;;;5072039;28;20266;-79
2022/03/18 09:57:07;;;;;;;11.73;5.93;;;;;;;;;;5070302;28;20193;-80
2022/03/18 09:59:34;;;;;;;12.17;6.30;;;;;;;;;;5067049;28;20204;-79
2022/03/18 10:02:19;;;;;;;13.07;6.23;;;;;;;;;;5070315;28;20217;-79
2022/03/18 10:04:52;;;;;;;11.93;6.60;;;;;;;;;;5074131;28;20185;-79
2022/03/18 10:07:18;;;;;;;10.60;5.90;;;;;;;;;;5080523;28;20216;-79
2022/03/18 10:09:44;;;;;;;11.87;6.50;;;;;;;;;;5081811;28;20189;-79
2022/03/18 10:12:28;;;;;;;13.50;6.53;;;;;;;;;;5071389;28;20201;-79
2022/03/18 10:15:11;;;;;;;13.60;7.17;;;;;;;;;;5070195;28;20184;-79
2022/03/18 10:17:58;;;;;;;11.13;6.30;;;;;;;;;;5071508;28;20240;-79
2022/03/18 10:20:32;;;;;;;11.03;6.07;;;;;;;;;;5068378;28;20770;-79
2022/03/18 10:23:02;;;;;;;11.97;6.43;;;;;;;;;;5074664;28;20217;-79
2022/03/18 10:25:50;;;;;;;12.73;6.50;;;;;;;;;;5066906;28;20189;-79
2022/03/18 10:28:18;;;;;;;14.50;6.77;;;;;;;;;;5069958;28;20666;-79
2022/03/18 10:30:44;;;;;;;13.40;6.40;;;;;;;;;;5066891;28;20221;-80
2022/03/18 10:33:10;;;;;;;13.93;6.30;;;;;;;;;;5061955;28;20200;-79
2022/03/18 10:38:30;;;;;;;11.50;6.60;;;;;;;;;;5071126;28;20196;-80
2022/03/18 10:40:57;;;;;;;13.67;6.43;;;;;;;;;;5061414;28;20242;-79
2022/03/18 10:43:24;;;;;;;10.93;6.53;;;;;;;;;;5068073;28;20181;-79
2022/03/18 10:46:00;;;;;;;10.70;5.60;;;;;;;;;;5048211;28;20236;-79
2022/03/18 10:48:26;;;;;;;14.37;6.20;;;;;;;;;;5069208;28;20689;-80
2022/03/18 10:51:04;;;;;;;12.10;6.77;;;;;;;;;;5070704;28;20197;-79
2022/03/18 10:53:31;;;;;;;13.13;6.20;;;;;;;;;;5063176;28;20234;-80
2022/03/18 10:56:01;;;;;;;12.27;6.37;;;;;;;;;;5067906;28;20185;-80
2022/03/18 10:58:30;;;;;;;9.30;6.20;;;;;;;;;;5065350;28;20185;-80
2022/03/18 11:00:59;;;;;;;13.83;6.63;;;;;;;;;;5068302;28;20209;-79
2022/03/18 11:03:25;;;;;;;11.03;6.27;;;;;;;;;;5046551;28;20268;-80
2022/03/18 11:05:52;;;;;;;12.37;6.20;;;;;;;;;;5065071;28;20268;-80
2022/03/18 11:08:21;;;;;;;12.73;5.90;;;;;;;;;;5071178;28;20181;-80
2022/03/18 11:11:07;;;;;;;10.43;5.90;;;;;;;;;;5069119;28;20190;-80
2022/03/18 11:13:39;;;;;;;10.90;5.90;;;;;;;;;;5067479;28;20816;-80
2022/03/18 11:16:06;;;;;;;13.83;5.70;;;;;;;;;;5067017;28;20196;-81
2022/03/18 11:18:32;;;;;;;13.13;5.90;;;;;;;;;;5069689;28;20231;-79
2022/03/18 11:21:01;;;;;;;12.03;5.03;;;;;;;;;;5057337;28;20215;-79
2022/03/18 11:23:28;;;;;;;10.80;5.10;;;;;;;;;;5063425;28;20177;-79
2022/03/18 11:25:56;;;;;;;9.00;5.77;;;;;;;;;;5066154;28;20281;-79
2022/03/18 11:28:23;;;;;;;13.30;5.53;;;;;;;;;;5069680;28;20252;-79
2022/03/18 11:31:00;;;;;;;10.63;5.50;;;;;;;;;;5063190;28;20213;-79
2022/03/18 11:33:26;;;;;;;10.60;5.40;;;;;;;;;;5061769;28;20180;-79
2022/03/18 11:35:52;;;;;;;6.87;5.07;;;;;;;;;;5062832;28;20181;-79
2022/03/18 11:38:23;;;;;;;7.53;4.67;;;;;;;;;;5063377;28;20525;-79
2022/03/18 11:40:53;;;;;;;8.53;4.73;;;;;;;;;;5064062;28;20197;-79
2022/03/18 11:43:31;;;;;;;9.63;5.00;;;;;;;;;;5068113;28;20603;-79
2022/03/18 11:46:13;;;;;;;10.50;4.53;;;;;;;;;;5063346;28;20553;-78
2022/03/18 11:48:46;;;;;;;6.93;4.30;;;;;;;;;;5067342;28;20611;-79
2022/03/18 11:51:25;;;;;;;7.87;4.30;;;;;;;;;;5071546;28;20240;-79
2022/03/18 11:53:53;;;;;;;13.40;4.23;;;;;;;;;;5051056;28;20919;-79
2022/03/18 11:56:23;;;;;;;6.70;4.33;;;;;;;;;;5065853;28;20188;-79
2022/03/18 11:58:50;;;;;;;7.03;4.37;;;;;;;;;;5068496;28;20279;-79
2022/03/18 12:01:35;;;;;;;6.90;3.40;;;;;;;;;;5068060;28;20691;-79
2022/03/18 12:04:01;;;;;;;6.50;3.70;;;;;;;;;;5064275;28;20217;-79
2022/03/18 12:06:29;;;;;;;6.80;3.87;;;;;;;;;;5079665;28;20210;-79
2022/03/18 12:08:56;;;;;;;5.80;3.60;;;;;;;;;;5052627;28;20268;-79
2022/03/18 12:11:24;;;;;;;6.90;3.30;;;;;;;;;;5067989;28;20209;-79
2022/03/18 12:13:50;;;;;;;6.33;3.90;;;;;;;;;;5071721;28;20203;-79
2022/03/18 12:16:19;;;;;;;7.60;3.63;;;;;;;;;;5068464;28;20197;-79
2022/03/18 12:18:46;;;;;;;6.30;3.40;;;;;;;;;;5071650;28;20185;-79
2022/03/18 12:21:13;;;;;;;6.03;3.53;;;;;;;;;;5062414;28;20232;-77
2022/03/18 12:23:40;;;;;;;5.40;3.40;;;;;;;;;;5065090;28;20188;-78
2022/03/18 12:26:06;;;;;;;5.60;3.10;;;;;;;;;;5065933;28;20263;-77
2022/03/18 12:28:49;;;;;;;5.67;3.40;;;;;;;;;;5064256;28;20212;-76
2022/03/18 12:31:16;;;;;;;6.47;3.83;;;;;;;;;;5065679;28;20234;-78
2022/03/18 12:33:42;;;;;;;7.43;3.63;;;;;;;;;;5061071;28;20557;-78
2022/03/18 12:36:08;;;;;;;4.97;3.27;;;19.70;45.00;;;;;;5088653;28;20185;-77
2022/03/18 12:38:35;;;;;;;6.87;3.50;;;19.70;44.50;;;;;;5066762;28;20713;-77
2022/03/18 12:41:01;;;;;;;7.83;3.40;;;;;;;;;;5065807;28;20201;-78
2022/03/18 12:43:31;;;;;;;5.77;3.30;;;;;;;;;;5070141;28;20194;-78
2022/03/18 12:45:58;;;;;;;6.00;3.50;;;;;;;;;;5067727;28;20189;-78
2022/03/18 12:48:24;;;;;;;6.00;3.53;;;;;;;;;;5066408;28;21455;-78
2022/03/18 12:50:52;;;;;;;6.07;3.20;;;;;;;;;;5064613;28;20242;-78
2022/03/18 12:53:25;;;;;;;4.73;3.07;;;;;;;;;;5062699;28;20239;-78
2022/03/18 12:55:58;;;;;;;7.93;3.57;;;;;;;;;;5079827;28;20181;-78
2022/03/18 12:58:38;;;;;;;5.67;3.20;;;;;;;;;;5062356;28;20185;-77
2022/03/18 13:01:04;;;;;;;6.53;2.70;;;;;;;;;;5062973;28;20679;-78
2022/03/18 13:03:31;;;;;;;5.50;3.10;;;;;;;;;;5067111;28;20188;-77
2022/03/18 13:06:17;;;;;;;5.23;2.77;;;;;;;;;;5089950;28;20777;-79
2022/03/18 13:08:47;;;;;;;4.80;2.77;;;;;;;;;;5063232;28;20664;-78
2022/03/18 13:11:13;;;;;;;7.73;2.87;;;;;;;;;;5067665;28;20212;-78
2022/03/18 13:13:47;;;;;;;4.30;2.70;;;;;;;;;;5068363;28;20189;-78
2022/03/18 13:16:14;;;;;;;6.27;2.70;;;;;;;;;;5066125;28;20661;-78
2022/03/18 13:18:48;;;;;;;6.97;2.63;;;;;;;;;;5068734;28;20660;-79
2022/03/18 13:21:15;;;;;;;4.90;3.27;;;;;;;;;;5081024;28;20208;-79
2022/03/18 13:23:42;;;;;;;5.20;2.97;;;;;;;;;;5047851;28;20185;-78
2022/03/18 13:26:13;;;;;;;6.60;3.17;;;;;;;;;;5066621;28;20212;-79
2022/03/18 13:28:40;;;;;;;6.57;2.73;;;;;;;;;;5067037;28;20204;-78
2022/03/18 13:33:52;;;;;;;4.57;2.70;;;;;;;;;;5065066;28;20547;-79
2022/03/18 13:36:27;;;;;;;5.67;2.80;;;;;;;;;;5064777;28;20263;-78
2022/03/18 13:38:54;;;;;;;5.97;3.00;;;;;;;;;;5065146;28;20188;-79
2022/03/18 13:41:21;;;;;;;7.83;3.10;;;;;;;;;;5067380;28;20213;-79
2022/03/18 13:43:53;;;;;;;4.77;2.90;;;;;;;;;;5066107;28;20537;-79
2022/03/18 13:46:21;;;;;;;6.10;2.90;;;;;;;;;;5066454;28;20217;-79
2022/03/18 13:48:48;;;;;;;5.10;2.67;;;;;;;;;;5065578;28;20192;-79
2022/03/18 13:51:30;;;;;;;4.07;2.83;;;;;;;;;;5066757;28;20201;-79
2022/03/18 13:54:10;;;;;;;5.07;2.93;;;;;;;;;;5054886;28;21457;-79
2022/03/18 13:56:39;;;;;;;4.57;2.80;;;;;;;;;;5068008;28;20189;-80
2022/03/18 13:59:09;;;;;;;4.73;3.10;;;;;;;;;;5064626;28;20663;-79
2022/03/18 14:01:35;;;;;;;5.53;3.53;;;;;;;;;;5066227;28;20235;-78
2022/03/18 14:04:01;;;;;;;5.20;3.20;;;;;;;;;;5067030;28;20203;-79
2022/03/18 14:06:27;;;;;;;5.67;4.10;;;;;;;;;;5067159;28;20222;-79
2022/03/18 14:08:54;;;;;;;6.53;4.57;;;;;;;;;;5070439;28;20299;-79
2022/03/18 14:14:28;;;;;;;7.27;4.90;;;;;;;;;;5075820;28;20192;-79
2022/03/18 14:17:07;;;;;;;7.00;5.13;;;;;;;;;;5049557;28;20205;-79
2022/03/18 14:19:48;;;;;;;6.93;4.93;;;;;;;;;;5067430;28;20245;-79
2022/03/18 14:22:27;;;;;;;6.17;4.80;;;;;;;;;;5046110;28;20957;-79
2022/03/18 14:24:53;;;;;;;11.07;6.90;;;;;;;;;;5059377;28;20217;-79
2022/03/18 14:27:20;;;;;;;8.53;6.30;;;;;;;;;;5072157;28;20213;-79
2022/03/18 14:29:47;;;;;;;8.90;7.00;;;;;;;;;;5071374;28;20724;-77
2022/03/18 14:32:13;;;;;;;11.67;7.93;;;;;;;;;;5075236;28;20286;-78
2022/03/18 14:34:41;;;;;;;17.53;13.70;;;;;;;;;;5071635;28;20177;-78
2022/03/18 14:37:08;;;;;;;18.60;12.93;;;;;;;;;;5052721;28;20751;-78
2022/03/18 14:39:34;;;;;;;18.73;12.80;;;;;;;;;;5070477;28;20185;-77
2022/03/18 14:42:00;;;;;;;19.73;13.07;;;;;;;;;;5071799;28;20204;-80
2022/03/18 14:44:26;;;;;;;15.27;12.37;;;;;;;;;;5070130;28;20264;-77
2022/03/18 14:46:52;;;;;;;15.30;12.20;;;;;;;;;;5065766;28;20213;-79
2022/03/18 14:49:19;;;;;;;14.67;12.37;;;;;;;;;;5076776;28;20220;-79
2022/03/18 14:51:46;;;;;;;12.40;10.43;;;;;;;;;;5065585;28;20628;-78
2022/03/18 14:54:14;;;;;;;13.43;10.20;;;;;;;;;;5067046;28;20192;-79
2022/03/18 14:56:41;;;;;;;15.97;10.70;;;;;;;;;;5070851;28;20276;-79
2022/03/18 14:59:07;;;;;;;18.17;10.67;;;;;;;;;;5071150;28;20648;-79
2022/03/18 15:01:33;;;;;;;14.43;9.87;;;;;;;;;;5065942;28;20221;-79
2022/03/18 15:04:05;;;;;;;12.97;9.47;;;;;;;;;;5070685;28;20669;-78